Time;durP1;ratioP1;P1;durP2;ratioP2;P2;SDS_P1;SDS_P2;PMS_P1;PMS_P2;Temp;Humidity;BMP_temperature;BMP_pressure;BME280_temperature;BME280_humidity;BME280_pressure;Samples;Min_cycle;Max_cycle;Signal;HPM_P1;HPM_P2
2021/04/15 00:01:53;;;;;;;5.77;1.67;;;;;;;;;;5052830;28;20020;-79
2021/04/15 00:04:18;;;;;;;6.17;1.80;;;;;;;;;;5052748;28;20074;-79
2021/04/15 00:06:43;;;;;;;3.77;1.73;;;;;;;;;;5051455;28;20500;-79
2021/04/15 00:09:14;;;;;;;4.60;1.70;;;;;;;;;;5052743;28;20028;-79
2021/04/15 00:11:40;;;;;;;3.83;1.67;;;;;;;;;;5052428;28;20039;-79
2021/04/15 00:14:06;;;;;;;3.37;1.60;;;;;;;;;;5052408;28;20037;-78
2021/04/15 00:16:32;;;;;;;4.33;1.60;;;;;;;;;;5051867;28;20025;-78
2021/04/15 00:18:57;;;;;;;7.30;2.03;;;;;;;;;;5052635;28;20035;-79
2021/04/15 00:21:24;;;;;;;8.77;1.97;;;;;;;;;;5052303;28;20035;-79
2021/04/15 00:23:49;;;;;;;4.77;1.87;;;;;;;;;;5052423;28;20020;-79
2021/04/15 00:26:16;;;;;;;5.07;1.60;;;;;;;;;;5051142;28;20104;-79
2021/04/15 00:28:41;;;;;;;8.43;2.20;;;;;;;;;;5052188;28;20491;-79
2021/04/15 00:31:06;;;;;;;6.50;2.10;;;;;;;;;;5052416;28;20013;-79
2021/04/15 00:33:31;;;;;;;8.57;2.07;;;;;;;;;;5051271;28;20056;-78
2021/04/15 00:35:57;;;;;;;7.27;1.97;;;;;;;;;;5051064;28;20155;-79
2021/04/15 00:38:23;;;;;;;8.10;2.00;;;;;;;;;;5051013;28;20465;-78
2021/04/15 00:40:48;;;;;;;10.23;2.03;;;;;;;;;;5063263;28;20021;-79
2021/04/15 00:43:21;;;;;;;7.77;1.93;;;;;;;;;;5052276;28;20088;-79
2021/04/15 00:45:47;;;;;;;3.87;1.93;;;;;;;;;;5050536;28;20565;-79
2021/04/15 00:48:31;;;;;;;6.83;1.97;;;;;;;;;;5052124;28;20037;-79
2021/04/15 00:51:09;;;;;;;8.10;2.10;;;;;;;;;;5052020;28;20367;-79
2021/04/15 00:53:38;;;;;;;2.90;1.60;;;;;;;;;;5052176;28;20503;-79
2021/04/15 00:56:03;;;;;;;4.47;2.10;;;;;;;;;;5051997;28;20017;-79
2021/04/15 00:58:30;;;;;;;3.63;1.73;;;;;;;;;;5050923;28;20028;-79
2021/04/15 01:00:55;;;;;;;5.57;2.00;;;;;;;;;;5051407;28;20368;-79
2021/04/15 01:03:20;;;;;;;6.77;2.07;;;;;;;;;;5050676;28;20048;-79
2021/04/15 01:05:46;;;;;;;5.13;2.17;;;;;;;;;;5043230;28;20020;-79
2021/04/15 01:08:12;;;;;;;5.83;2.07;;;;;;;;;;5051955;28;20108;-79
2021/04/15 01:10:39;;;;;;;7.13;1.80;;;;;;;;;;5051390;28;20056;-79
2021/04/15 01:13:10;;;;;;;9.37;1.90;;;;;;;;;;5053653;28;20029;-79
2021/04/15 01:15:56;;;;;;;7.23;1.90;;;;;;;;;;5052196;28;20071;-79
2021/04/15 01:18:24;;;;;;;5.57;1.80;;;;;;;;;;5053137;28;20112;-79
2021/04/15 01:20:49;;;;;;;10.83;2.10;;;;;;;;;;5053268;28;20464;-78
2021/04/15 01:23:25;;;;;;;7.43;2.40;;;;;;;;;;5051840;28;20109;-79
2021/04/15 01:26:02;;;;;;;4.07;1.60;;;;;;;;;;5053738;28;20033;-79
2021/04/15 01:28:41;;;;;;;4.97;1.80;;;;;;;;;;5053801;28;20432;-79
2021/04/15 01:31:10;;;;;;;4.77;1.67;;;;;;;;;;5051859;28;20017;-79
2021/04/15 01:33:53;;;;;;;6.67;2.30;;;;;;;;;;5053380;28;20021;-79
2021/04/15 01:36:23;;;;;;;4.85;2.10;;;;;;;;;;5053895;28;20016;-79
2021/04/15 01:38:51;;;;;;;6.43;2.00;;;;;;;;;;5053690;28;20024;-79
2021/04/15 01:41:29;;;;;;;11.77;1.97;;;;;;;;;;5051749;28;20017;-79
2021/04/15 01:43:57;;;;;;;4.17;1.73;;;;;;;;;;5055166;28;20106;-79
2021/04/15 01:46:26;;;;;;;7.27;1.87;;;;;;;;;;5053795;28;20020;-79
2021/04/15 01:48:52;;;;;;;5.13;2.00;;;;;;;;;;5055152;28;20530;-79
2021/04/15 01:51:25;;;;;;;6.73;1.80;;;;;;;;;;5053452;28;20013;-79
2021/04/15 01:53:52;;;;;;;6.43;1.70;;;;;;;;;;5055061;28;20071;-79
2021/04/15 01:56:23;;;;;;;4.00;1.80;;;;;;;;;;5053008;28;20020;-79
2021/04/15 01:59:01;;;;;;;3.73;1.90;;;;;;;;;;5054785;28;20029;-79
2021/04/15 02:01:27;;;;;;;6.60;2.30;;;;;;;;;;5054737;28;20072;-79
2021/04/15 02:03:55;;;;;;;5.73;2.07;;;;;;;;;;5055277;28;20021;-78
2021/04/15 02:06:24;;;;;;;5.03;2.10;;;;;;;;;;5053024;28;20565;-78
2021/04/15 02:08:52;;;;;;;8.23;2.10;;;;;;;;;;5053739;28;20116;-79
2021/04/15 02:11:17;;;;;;;5.50;2.23;;;;;;;;;;5054213;28;20017;-79
2021/04/15 02:13:44;;;;;;;4.32;1.90;;;;;;;;;;5053305;28;20036;-79
2021/04/15 02:16:12;;;;;;;5.63;2.00;;;;;;;;;;5053273;28;20021;-79
2021/04/15 02:18:43;;;;;;;5.77;2.00;;;;;;;;;;5070081;28;20495;-78
2021/04/15 02:21:35;;;;;;;5.63;2.33;;;;;;;;;;5054421;28;20022;-79
2021/04/15 02:24:06;;;;;;;4.93;2.13;;;;;;;;;;5053429;28;20036;-79
2021/04/15 02:26:33;;;;;;;6.43;2.00;;;;;;;;;;5053060;28;20025;-78
2021/04/15 02:29:05;;;;;;;8.00;2.10;;;;;;;;;;5053059;28;20421;-79
2021/04/15 02:31:36;;;;;;;5.32;2.05;;;;;;;;;;5053280;28;20025;-79
2021/04/15 02:34:04;;;;;;;8.67;2.23;;;;;;;;;;5054156;28;20067;-79
2021/04/15 02:36:35;;;;;;;9.20;2.50;;;;;;;;;;5052939;28;20029;-79
2021/04/15 02:39:09;;;;;;;7.07;2.20;;;;;;;;;;5054094;28;20491;-79
2021/04/15 02:41:37;;;;;;;5.80;2.57;;;;;;;;;;5054233;28;20491;-79
2021/04/15 02:44:06;;;;;;;6.03;2.00;;;;;;;;;;5052641;28;20021;-79
2021/04/15 02:46:45;;;;;;;7.13;2.37;;;;;;;;;;5053697;28;20017;-79
2021/04/15 02:49:11;;;;;;;7.90;2.73;;;;;;;;;;5053906;28;20143;-78
2021/04/15 02:51:42;;;;;;;6.00;2.40;;;;;;;;;;5054034;28;20479;-79
2021/04/15 02:54:12;;;;;;;8.80;2.40;;;;;;;;;;5052620;28;20119;-79
2021/04/15 02:56:44;;;;;;;8.87;2.30;;;;;;;;;;5054029;28;20068;-79
2021/04/15 02:59:18;;;;;;;5.00;2.10;;;;;;;;;;5052343;28;20033;-79
2021/04/15 03:01:46;;;;;;;6.70;2.60;;;;;;;;;;5052519;28;20108;-78
2021/04/15 03:04:16;;;;;;;11.03;2.67;;;;;;;;;;5053683;28;20024;-78
2021/04/15 03:06:41;;;;;;;8.17;2.40;;;;;;;;;;5053616;28;20021;-79
2021/04/15 03:09:08;;;;;;;8.87;2.70;;;;;;;;;;5052339;28;20025;-78
2021/04/15 03:11:43;;;;;;;8.50;3.20;;;;;;;;;;5068670;28;20031;-79
2021/04/15 03:14:10;;;;;;;7.13;2.63;;;;;;;;;;5053590;28;20052;-79
2021/04/15 03:16:39;;;;;;;5.73;2.23;;;;;;;;;;5053422;28;20021;-79
2021/04/15 03:19:24;;;;;;;5.23;2.30;;;;;;;;;;5053995;28;20024;-79
2021/04/15 03:21:56;;;;;;;5.83;2.67;;;;;;;;;;5051021;28;20041;-79
2021/04/15 03:24:24;;;;;;;9.75;2.28;;;;;;;;;;5053312;28;20013;-79
2021/04/15 03:26:53;;;;;;;6.73;2.47;;;;;;;;;;5053295;28;20021;-79
2021/04/15 03:29:37;;;;;;;6.77;2.10;;;;;;;;;;5053357;28;20031;-79
2021/04/15 03:32:23;;;;;;;8.13;2.57;;;;;;;;;;5051429;28;20092;-79
2021/04/15 03:34:48;;;;;;;6.67;2.70;;;;;;;;;;5051482;28;20024;-79
2021/04/15 03:37:17;;;;;;;10.53;2.63;;;;;;;;;;5052482;28;20552;-79
2021/04/15 03:39:43;;;;;;;8.10;3.30;;;;;;;;;;5053060;28;20029;-79
2021/04/15 03:42:32;;;;;;;11.27;2.43;;;;;;;;;;5052525;28;20075;-79
2021/04/15 03:45:03;;;;;;;7.07;2.50;;;;;;;;;;5055197;28;20028;-79
2021/04/15 03:47:31;;;;;;;4.70;2.17;;;;;;;;;;5051480;28;20048;-79
2021/04/15 03:49:57;;;;;;;9.27;2.50;;;;;;;;;;5051511;28;20029;-78
2021/04/15 03:52:25;;;;;;;5.67;2.30;;;;;;;;;;5052307;28;20028;-79
2021/04/15 03:55:11;;;;;;;10.97;3.33;;;;;;;;;;5052724;28;20028;-78
2021/04/15 03:57:37;;;;;;;9.63;3.00;;;;;;;;;;5052613;28;20056;-78
2021/04/15 04:00:11;;;;;;;5.57;2.73;;;;;;;;;;5052263;28;20029;-78
2021/04/15 04:02:41;;;;;;;7.00;2.73;;;;;;;;;;5052664;28;20052;-78
2021/04/15 04:05:24;;;;;;;7.07;2.73;;;;;;;;;;5051229;28;20094;-79
2021/04/15 04:07:55;;;;;;;9.47;4.20;;;;;;;;;;5050731;28;20025;-79
2021/04/15 04:10:22;;;;;;;9.83;3.60;;;;;;;;;;5051180;28;20029;-79
2021/04/15 04:12:53;;;;;;;12.30;3.77;;;;;;;;;;5052135;28;20033;-79
2021/04/15 04:15:20;;;;;;;9.20;3.63;;;;;;;;;;5052750;28;20031;-78
2021/04/15 04:18:01;;;;;;;8.83;3.57;;;;;;;;;;5051183;28;20032;-79
2021/04/15 04:20:26;;;;;;;8.03;3.37;;;;;;;;;;5052190;28;20020;-78
2021/04/15 04:22:53;;;;;;;6.30;3.40;;;;;;;;;;5050983;28;20036;-79
2021/04/15 04:25:29;;;;;;;8.57;4.00;;;;;;;;;;5052436;28;20475;-79
2021/04/15 04:27:55;;;;;;;7.83;3.80;;;;;;;;;;5052502;28;20017;-79
2021/04/15 04:30:26;;;;;;;8.93;3.17;;;;;;;;;;5052090;28;20025;-79
2021/04/15 04:33:02;;;;;;;9.33;3.63;;;;;;;;;;5052324;28;20047;-79
2021/04/15 04:35:29;;;;;;;9.53;3.13;;;;;;;;;;5050770;28;20107;-79
2021/04/15 04:37:56;;;;;;;9.23;3.20;;;;;;;;;;5050966;28;20052;-79
2021/04/15 04:40:24;;;;;;;11.40;3.53;;;;;;;;;;5052444;28;20047;-79
2021/04/15 04:43:05;;;;;;;10.80;3.63;;;;;;;;;;5052377;28;20487;-78
2021/04/15 04:45:30;;;;;;;9.73;3.70;;;;;;;;;;5049599;28;20076;-79
2021/04/15 04:48:01;;;;;;;9.27;3.63;;;;;;;;;;5052198;28;20045;-78
2021/04/15 04:50:35;;;;;;;7.37;3.50;;;;;;;;;;5051851;28;20047;-78
2021/04/15 04:53:05;;;;;;;6.07;3.07;;;;;;;;;;5051750;28;20048;-79
2021/04/15 04:55:57;;;;;;;10.37;3.60;;;;;;;;;;5052142;28;20040;-79
2021/04/15 04:58:23;;;;;;;8.02;3.95;;;;;;;;;;5050775;28;20040;-79
2021/04/15 05:00:52;;;;;;;6.40;2.70;;;;;;;;;;5051114;28;20562;-79
2021/04/15 05:03:21;;;;;;;7.67;3.33;;;;;;;;;;5051534;28;20636;-79
2021/04/15 05:05:47;;;;;;;7.23;3.37;;;;;;;;;;5052097;28;20036;-78
2021/04/15 05:08:20;;;;;;;6.90;3.23;;;;;;;;;;5051876;28;20013;-79
2021/04/15 05:10:49;;;;;;;7.30;2.83;;;;;;;;;;5051953;28;20025;-78
2021/04/15 05:13:19;;;;;;;6.97;3.30;;;;;;;;;;5051698;28;20029;-79
2021/04/15 05:15:44;;;;;;;9.30;3.40;;;;;;;;;;5051670;28;20047;-78
2021/04/15 05:18:15;;;;;;;8.40;3.40;;;;;;;;;;5050870;28;20021;-79
2021/04/15 05:20:41;;;;;;;7.93;3.20;;;;;;;;;;5051575;28;20096;-78
2021/04/15 05:23:06;;;;;;;7.23;3.07;;;;;;;;;;5051540;28;20044;-79
2021/04/15 05:25:43;;;;;;;8.43;3.57;;;;;;;;;;5051516;28;20067;-79
2021/04/15 05:28:11;;;;;;;8.13;3.83;;;;;;;;;;5052088;28;20369;-79
2021/04/15 05:30:37;;;;;;;11.67;3.93;;;;;;;;;;5051157;28;20096;-79
2021/04/15 05:33:03;;;;;;;14.77;4.27;;;;;;;;;;5050282;28;20112;-79
2021/04/15 05:35:34;;;;;;;9.67;4.10;;;;;;;;;;5051028;28;20033;-79
2021/04/15 05:38:00;;;;;;;10.02;5.05;;;;;;;;;;5051033;28;20028;-79
2021/04/15 05:40:25;;;;;;;14.80;6.17;;;;;;;;;;5050432;28;20112;-78
2021/04/15 05:43:06;;;;;;;12.73;5.27;;;;;;;;;;5050283;28;20018;-79
2021/04/15 05:45:33;;;;;;;11.87;5.20;;;;;;;;;;5050391;28;20116;-79
2021/04/15 05:48:03;;;;;;;13.27;4.40;;;;;;;;;;5049899;28;20021;-79
2021/04/15 05:50:30;;;;;;;9.47;3.30;;;;;;;;;;5051036;28;20086;-80
2021/04/15 05:53:14;;;;;;;12.07;4.30;;;;;;;;;;5049933;28;20132;-79
2021/04/15 05:55:44;;;;;;;10.13;3.77;;;;;;;;;;5051638;28;20025;-79
2021/04/15 05:58:14;;;;;;;9.33;3.80;;;;;;;;;;5053525;28;20096;-79
2021/04/15 06:00:48;;;;;;;6.67;3.30;;;;;;;;;;5054898;28;20060;-79
2021/04/15 06:03:33;;;;;;;9.80;3.30;;;;;;;;;;5041240;28;20017;-79
2021/04/15 06:06:00;;;;;;;6.27;3.30;;;;;;;;;;5053218;28;20071;-79
2021/04/15 06:08:27;;;;;;;4.50;2.33;;;;;;;;;;5054876;28;20035;-79
2021/04/15 06:10:56;;;;;;;7.85;3.30;;;;;;;;;;5054516;28;20101;-79
2021/04/15 06:13:28;;;;;;;7.68;2.80;;;;;;;;;;5053884;28;20099;-79
2021/04/15 06:15:59;;;;;;;11.45;3.42;;;;;;;;;;5052971;28;20029;-79
2021/04/15 06:18:33;;;;;;;5.45;3.15;;;;;;;;;;5054455;28;20025;-79
2021/04/15 06:21:00;;;;;;;6.87;3.77;;;;;;;;;;5054074;28;20117;-79
2021/04/15 06:23:28;;;;;;;13.97;5.20;;;;;;;;;;5053514;28;20067;-78
2021/04/15 06:25:54;;;;;;;13.53;4.90;;;;;;;;;;5052799;28;20124;-78
2021/04/15 06:28:21;;;;;;;10.63;4.80;;;;;;;;;;5052848;28;20025;-78
2021/04/15 06:31:05;;;;;;;8.97;5.00;;;;;;;;;;5052632;28;20025;-79
2021/04/15 06:33:30;;;;;;;12.13;4.73;;;;;;;;;;5054159;28;20081;-79
2021/04/15 06:35:56;;;;;;;12.80;4.40;;;;;;;;;;5052400;28;20024;-78
2021/04/15 06:38:24;;;;;;;10.43;4.17;;;;;;;;;;5069478;28;20020;-79
2021/04/15 06:41:08;;;;;;;12.33;4.40;;;;;;;;;;5053458;28;20074;-79
2021/04/15 06:44:00;;;;;;;11.90;4.50;;;;;;;;;;5054044;28;20479;-79
2021/04/15 06:46:25;;;;;;;11.68;4.07;;;;;;;;;;5046498;28;20040;-79
2021/04/15 06:49:06;;;;;;;12.63;5.70;;;;;;;;;;5053878;28;20079;-78
2021/04/15 06:51:50;;;;;;;8.80;5.00;;;;;;;;;;5053507;28;20318;-79
2021/04/15 06:54:33;;;;;;;11.70;5.50;;;;;;;;;;5052644;28;20039;-79
2021/04/15 06:57:17;;;;;;;13.17;5.03;;;;;;;;;;5053228;28;20082;-79
2021/04/15 06:59:42;;;;;;;14.20;6.07;;;;;;;;;;5053410;28;20357;-79
2021/04/15 07:02:46;;;;;;;12.57;5.73;;;;;;;;;;5052299;28;20023;-79
2021/04/15 07:05:19;;;;;;;16.83;6.30;;;;;;;;;;5050879;28;20476;-79
2021/04/15 07:07:59;;;;;;;11.13;5.40;;;;;;;;;;5045187;28;20033;-79
2021/04/15 07:10:24;;;;;;;10.77;5.27;;;;;;;;;;5073461;28;20036;-78
2021/04/15 07:13:08;;;;;;;9.76;4.70;;;;;;;;;;5053235;28;20311;-78
2021/04/15 07:15:33;;;;;;;11.57;5.57;;;;;;;;;;5053215;28;20024;-79
2021/04/15 07:18:18;;;;;;;6.90;3.70;;;;;;;;;;5053540;28;20013;-79
2021/04/15 07:21:02;;;;;;;6.43;3.90;;;;;;;;;;5039745;28;20475;-79
2021/04/15 07:23:35;;;;;;;9.27;4.47;;;;;;;;;;5053282;28;20515;-79
2021/04/15 07:26:10;;;;;;;9.38;4.45;;;;;;;;;;5068367;28;20021;-79
2021/04/15 07:28:53;;;;;;;16.27;5.28;;;;;;;;;;5053120;28;20017;-79
2021/04/15 07:31:34;;;;;;;10.32;4.70;;;;;;;;;;5052284;28;20021;-79
2021/04/15 07:34:14;;;;;;;11.23;5.20;;;;;;;;;;5051866;28;20436;-79
2021/04/15 07:36:49;;;;;;;13.18;5.10;;;;;;;;;;5052498;28;20017;-79
2021/04/15 07:39:33;;;;;;;10.10;5.18;;;;;;;;;;5050723;28;20029;-80
2021/04/15 07:42:16;;;;;;;18.33;5.15;;;;;;;;;;5047816;28;20063;-80
2021/04/15 07:45:00;;;;;;;9.85;5.00;;;;;;;;;;5040572;28;20049;-80
2021/04/15 07:47:37;;;;;;;12.57;5.57;;;;;;;;;;5052565;28;20460;-79
2021/04/15 07:50:12;;;;;;;15.93;5.47;;;;;;;;;;5052821;28;20040;-81
2021/04/15 07:53:04;;;;;;;10.13;4.50;;;;;;;;;;5049886;28;20025;-80
2021/04/15 07:55:36;;;;;;;12.20;4.47;;;;;;;;;;5051334;28;20021;-80
2021/04/15 07:58:08;;;;;;;10.82;4.60;;;;;;;;;;5052652;28;20365;-81
2021/04/15 08:00:52;;;;;;;14.93;4.47;;;;;;;;;;5050770;28;20618;-81
2021/04/15 08:03:17;;;;;;;8.40;4.32;;;;;;;;;;5034913;28;20099;-80
2021/04/15 08:06:01;;;;;;;13.76;4.26;;;;;;;;;;5046238;28;20104;-80
2021/04/15 08:08:37;;;;;;;11.70;4.47;;;;;;;;;;5043225;28;20373;-80
2021/04/15 08:11:21;;;;;;;12.95;4.30;;;;;;;;;;5050451;28;20484;-81
2021/04/15 08:13:55;;;;;;;12.57;4.68;;;;;;;;;;5049789;28;20109;-81
2021/04/15 08:16:39;;;;;;;11.00;3.40;;;;;;;;;;5050487;28;20027;-80
2021/04/15 08:19:31;;;;;;;12.98;3.83;;;;;;;;;;5051447;28;20029;-81
2021/04/15 08:22:15;;;;;;;9.03;3.00;;;;;;;;;;5047583;28;20031;-80
2021/04/15 08:24:40;;;;;;;6.40;2.40;;;;;;;;;;5050504;28;20013;-80
2021/04/15 08:27:15;;;;;;;9.38;2.40;;;;;;;;;;5050679;28;20368;-81
2021/04/15 08:29:58;;;;;;;8.57;2.63;;;;;;;;;;5050770;28;20032;-80
2021/04/15 08:32:32;;;;;;;9.45;2.60;;;;;;;;;;5050533;28;20447;-81
2021/04/15 08:35:20;;;;;;;6.97;2.20;;;;;;;;;;5050846;28;20059;-80
2021/04/15 08:38:04;;;;;;;8.13;2.10;;;;;;;;;;5067643;28;20021;-81
2021/04/15 08:40:33;;;;;;;7.93;2.47;;;;;;;;;;5054817;28;20099;-81
2021/04/15 08:43:11;;;;;;;10.38;2.30;;;;;;;;;;5050504;28;20328;-80
2021/04/15 08:45:36;;;;;;;10.40;2.75;;;;;;;;;;5051843;28;20063;-80
2021/04/15 08:48:08;;;;;;;6.57;2.00;;;;;;;;;;5051979;28;20411;-80
2021/04/15 08:50:51;;;;;;;10.15;2.38;;;;;;;;;;5052062;28;20342;-80
2021/04/15 08:53:40;;;;;;;7.53;2.00;;;;;;;;;;5040357;28;20029;-80
2021/04/15 08:56:11;;;;;;;7.07;1.73;;;;;;;;;;5037437;28;20380;-80
2021/04/15 08:58:36;;;;;;;7.20;1.80;;;;;;;;;;5051246;28;20036;-80
2021/04/15 09:01:17;;;;;;;6.12;2.40;;;;;;;;;;5051217;28;20274;-81
2021/04/15 09:03:47;;;;;;;7.15;1.92;;;;;;;;;;5049974;28;20025;-81
2021/04/15 09:06:36;;;;;;;14.30;2.17;;;;;;;;;;5051172;28;20127;-85
2021/04/15 09:09:04;;;;;;;7.40;2.90;;;;;;;;;;5051883;28;20017;-83
2021/04/15 09:11:35;;;;;;;8.30;1.83;;;;;;;;;;5050236;28;20021;-81
2021/04/15 09:14:14;;;;;;;6.37;2.27;;;;;;;;;;5050148;28;20082;-81
2021/04/15 09:16:56;;;;;;;7.47;2.20;;;;;;;;;;5051792;28;20032;-80
2021/04/15 09:19:32;;;;;;;8.68;2.28;;;;;;;;;;5051911;28;20048;-80
2021/04/15 09:22:00;;;;;;;7.93;2.28;;;;;;;;;;5051260;28;20864;-81
2021/04/15 09:24:44;;;;;;;8.25;2.13;;;;;;;;;;5051138;28;20024;-81
2021/04/15 09:27:09;;;;;;;8.25;2.17;;;;;;;;;;5050485;28;20024;-81
2021/04/15 09:29:54;;;;;;;10.57;2.22;;;;;;;;;;5041968;28;20021;-81
2021/04/15 09:32:21;;;;;;;8.65;2.70;;;;;;;;;;5049581;28;20049;-80
2021/04/15 09:35:04;;;;;;;10.27;2.30;;;;;;;;;;5055081;28;20090;-80
2021/04/15 09:37:30;;;;;;;9.20;2.20;;;;;;;;;;5052222;28;20029;-80
2021/04/15 09:40:01;;;;;;;4.40;1.90;;;;;;;;;;5053403;28;20044;-81
2021/04/15 09:42:41;;;;;;;5.78;2.00;;;;;;;;;;5052784;28;20017;-80
2021/04/15 09:45:12;;;;;;;7.82;1.83;;;;;;;;;;5048392;28;20441;-80
2021/04/15 09:47:46;;;;;;;4.88;1.98;;;;;;;;;;5054935;28;20048;-80
2021/04/15 09:50:19;;;;;;;4.72;2.20;;;;;;;;;;5055068;28;20047;-80
2021/04/15 09:52:44;;;;;;;;;;;;;;;;;;5055161;28;20060;-80
2021/04/15 09:55:24;;;;;;;6.20;2.00;;;;;;;;;;5054195;28;19956;-80
2021/04/15 09:58:08;;;;;;;6.75;1.83;;;;;;;;;;5052135;28;20025;-81
2021/04/15 10:00:36;;;;;;;3.80;2.30;;;;;;;;;;5055007;28;20051;-81
2021/04/15 10:03:20;;;;;;;7.60;2.45;;;;;;;;;;5054640;28;20057;-81
2021/04/15 10:06:01;;;;;;;8.63;2.13;;;;;;;;;;5054483;28;20032;-81
2021/04/15 10:08:46;;;;;;;4.78;1.63;;;;;;;;;;5073534;28;20747;-80
2021/04/15 10:11:24;;;;;;;3.45;1.60;;;;;;;;;;5054409;28;20023;-81
2021/04/15 10:13:52;;;;;;;6.68;2.25;;;;;;;;;;5052694;28;20496;-81
2021/04/15 10:16:18;;;;;;;11.02;2.28;;;;;;;;;;5054500;28;20111;-81
2021/04/15 10:18:59;;;;;;;8.38;2.45;;;;;;;;;;5053213;28;20025;-81
2021/04/15 10:21:47;;;;;;;12.27;3.08;;;;;;;;;;5055934;28;20136;-81
2021/04/15 10:24:17;;;;;;;8.95;2.08;;;;;;;;;;5041786;28;20025;-81
2021/04/15 10:26:45;;;;;;;7.28;2.60;;;;;;;;;;5054184;28;20025;-80
2021/04/15 10:29:31;;;;;;;5.65;2.28;;;;;;;;;;5040182;28;20029;-81
2021/04/15 10:32:00;;;;;;;4.38;1.90;;;;;;;;;;5047342;28;20776;-81
2021/04/15 10:34:43;;;;;;;9.05;2.20;;;;;;;;;;5052965;28;20059;-81
2021/04/15 10:37:27;;;;;;;8.88;2.83;;;;;;;;;;5051748;28;20524;-81
2021/04/15 10:39:52;;;;;;;6.70;2.40;;;;;;;;;;5053898;28;20457;-81
2021/04/15 10:42:21;;;;;;;10.70;2.40;;;;;;;;;;5052629;28;20028;-81
2021/04/15 10:45:06;;;;;;;5.07;2.30;;;;;;;;;;5051621;28;20025;-80
2021/04/15 10:47:34;;;;;;;6.75;2.13;;;;;;;;;;5053434;28;20017;-81
2021/04/15 10:50:00;;;;;;;4.63;1.50;;;;;;;;;;5053823;28;20020;-80
2021/04/15 10:52:33;;;;;;;8.77;2.05;;;;;;;;;;5052156;28;20025;-81
2021/04/15 10:55:16;;;;;;;9.25;3.08;;;;;;;;;;5051848;28;20028;-81
2021/04/15 10:57:41;;;;;;;9.65;2.45;;;;;;;;;;5053487;28;20028;-81
2021/04/15 11:00:18;;;;;;;8.20;2.25;;;;;;;;;;5053748;28;20060;-81
2021/04/15 11:02:52;;;;;;;6.65;2.33;;;;;;;;;;5052739;28;20025;-80
2021/04/15 11:05:38;;;;;;;18.85;3.38;;;;;;;;;;5052881;28;20035;-81
2021/04/15 11:08:08;;;;;;;5.95;2.30;;;;;;;;;;5051753;28;20029;-80
2021/04/15 11:10:34;;;;;;;10.18;2.88;;;;;;;;;;5053332;28;20041;-81
2021/04/15 11:13:04;;;;;;;7.47;2.65;;;;;;;;;;5053002;28;20488;-81
2021/04/15 11:15:41;;;;;;;4.57;1.73;;;;;;;;;;5052695;28;20035;-81
2021/04/15 11:18:07;;;;;;;6.20;2.63;;;;;;;;;;5050599;28;20329;-82
2021/04/15 11:20:35;;;;;;;4.28;2.20;;;;;;;;;;5067857;28;20028;-81
2021/04/15 11:23:03;;;;;;;4.63;1.92;;;;;;;;;;5052495;28;20346;-81
2021/04/15 11:25:38;;;;;;;3.35;1.90;;;;;;;;;;5051828;28;20060;-81
2021/04/15 11:28:22;;;;;;;7.10;2.00;;;;;;;;;;5053387;28;20028;-80
2021/04/15 11:30:51;;;;;;;4.40;1.60;;;;;;;;;;5052404;28;20025;-80
2021/04/15 11:33:41;;;;;;;4.63;1.40;;;;;;;;;;5051897;28;20021;-81
2021/04/15 11:36:11;;;;;;;3.25;1.63;;;;;;;;;;5051049;28;20411;-81
2021/04/15 11:38:37;;;;;;;6.13;1.58;;;;;;;;;;5050295;28;20036;-81
2021/04/15 11:41:11;;;;;;;4.32;1.80;;;;;;;;;;5047122;28;20058;-81
2021/04/15 11:43:37;;;;;;;5.38;1.40;;;;;;;;;;5052272;28;20096;-81
2021/04/15 11:46:19;;;;;;;4.95;1.95;;;;;;;;;;5051934;28;20151;-81
2021/04/15 11:48:45;;;;;;;5.68;1.80;;;;;;;;;;5051463;28;20384;-81
2021/04/15 11:51:16;;;;;;;6.82;2.33;;;;;;;;;;5050748;28;20025;-81
2021/04/15 11:53:44;;;;;;;6.13;2.60;;;;;;;;;;5050954;28;20562;-80
2021/04/15 11:56:31;;;;;;;4.13;2.20;;;;;;;;;;5050292;28;20436;-81
2021/04/15 11:59:13;;;;;;;5.80;1.73;;;;;;;;;;5049094;28;20024;-80
2021/04/15 12:01:38;;;;;;;4.68;2.17;;;;;;;;;;5051922;28;20139;-80
2021/04/15 12:04:07;;;;;;;5.15;1.75;;;;;;;;;;5051389;28;20124;-81
2021/04/15 12:06:38;;;;;;;3.45;1.77;;;;;;;;;;5051676;28;20009;-81
2021/04/15 12:09:04;;;;;;;7.93;2.33;;;;;;;;;;5050838;28;20506;-80
2021/04/15 12:11:34;;;;;;;6.30;1.73;;;;;;;;;;5049756;28;20025;-80
2021/04/15 12:14:05;;;;;;;8.02;2.10;;;;;;;;;;5050540;28;20029;-80
2021/04/15 12:16:39;;;;;;;6.53;1.92;;;;;;;;;;5052228;28;20032;-81
2021/04/15 12:19:09;;;;;;;5.80;2.10;;;;;;;;;;5051027;28;20476;-81
2021/04/15 12:21:38;;;;;;;2.33;1.50;;;;;;;;;;5052194;28;20367;-81
2021/04/15 12:24:03;;;;;;;3.95;1.75;;;;;;;;;;5066551;28;20469;-81
2021/04/15 12:26:29;;;;;;;2.90;1.30;;;;;;;;;;5051594;28;20123;-81
2021/04/15 12:29:02;;;;;;;3.70;1.67;;;;;;;;;;5050274;28;20013;-81
2021/04/15 12:31:37;;;;;;;3.70;1.63;;;;;;;;;;5050630;28;20043;-81
2021/04/15 12:34:14;;;;;;;5.00;2.08;;;;;;;;;;5051540;28;20096;-80
2021/04/15 12:36:45;;;;;;;6.72;1.45;;;;;;;;;;5045057;28;20040;-81
2021/04/15 12:39:14;;;;;;;3.80;1.70;;;;;;;;;;5050800;28;20025;-81
2021/04/15 12:41:39;;;;;;;3.05;1.48;;;;;;;;;;5047845;28;20053;-81
2021/04/15 12:44:08;;;;;;;5.30;1.25;;;;;;;;;;5048960;28;20056;-81
2021/04/15 12:46:34;;;;;;;5.30;1.50;;;;;;;;;;5049677;28;20372;-80
2021/04/15 12:49:03;;;;;;;6.05;1.70;;;;;;;;;;5048408;28;20108;-81
2021/04/15 12:51:48;;;;;;;2.42;1.13;;;;;;;;;;5048481;28;20032;-81
2021/04/15 12:54:16;;;;;;;6.10;2.60;;;;;;;;;;5049973;28;20041;-80
2021/04/15 12:56:45;;;;;;;3.25;1.80;;;;;;;;;;5049945;28;20460;-81
2021/04/15 12:59:21;;;;;;;6.15;1.52;;;;;;;;;;5049695;28;20476;-80
2021/04/15 13:01:46;;;;;;;3.20;1.65;;;;;;;;;;5048825;28;20036;-81
2021/04/15 13:04:24;;;;;;;3.50;1.80;;;;;;;;;;5048590;28;20420;-80
2021/04/15 13:07:01;;;;;;;4.35;1.40;;;;;;;;;;5050739;28;20027;-81
2021/04/15 13:09:32;;;;;;;3.28;1.17;;;;;;;;;;5052681;28;20362;-81
2021/04/15 13:11:57;;;;;;;2.40;1.10;;;;;;;;;;5055696;28;20105;-81
2021/04/15 13:14:42;;;;;;;1.50;0.88;;;;;;;;;;5054092;28;20060;-80
2021/04/15 13:17:08;;;;;;;2.85;1.17;;;;;;;;;;5051503;28;20041;-80
2021/04/15 13:19:35;;;;;;;2.63;1.50;;;;;;;;;;5054276;28;20024;-80
2021/04/15 13:22:08;;;;;;;4.72;2.00;;;;;;;;;;5054932;28;20203;-80
2021/04/15 13:24:45;;;;;;;2.80;1.50;;;;;;;;;;5055671;28;20078;-81
2021/04/15 13:27:29;;;;;;;4.20;1.88;;;;;;;;;;5055135;28;20041;-80
2021/04/15 13:30:06;;;;;;;4.43;1.58;;;;;;;;;;5051778;28;20028;-80
2021/04/15 13:32:51;;;;;;;4.22;1.67;;;;;;;;;;5042946;28;20360;-80
2021/04/15 13:35:19;;;;;;;6.07;1.80;;;;;;;;;;5054882;28;20095;-81
2021/04/15 13:37:45;;;;;;;3.20;1.92;;;;;;;;;;5054673;28;20028;-80
2021/04/15 13:40:13;;;;;;;4.95;1.27;;;;;;;;;;5053874;28;20060;-80
2021/04/15 13:42:39;;;;;;;1.92;0.90;;;;;;;;;;5054623;28;20017;-80
2021/04/15 13:45:06;;;;;;;2.28;0.95;;;;;;;;;;5055419;28;20029;-81
2021/04/15 13:47:41;;;;;;;3.25;1.00;;;;;;;;;;5054977;28;20480;-81
2021/04/15 13:50:06;;;;;;;4.75;1.23;;;;;;;;;;5053419;28;20017;-81
2021/04/15 13:52:34;;;;;;;2.65;1.00;;;;;;;;;;5054745;28;20070;-80
2021/04/15 13:55:19;;;;;;;2.90;1.17;;;;;;;;;;5052597;28;20024;-80
2021/04/15 13:57:45;;;;;;;2.92;1.45;;;;;;;;;;5052861;28;20029;-81
2021/04/15 14:00:12;;;;;;;1.98;1.20;;;;;;;;;;5053362;28;20743;-81
2021/04/15 14:02:46;;;;;;;3.28;1.13;;;;;;;;;;5053015;28;20074;-81
2021/04/15 14:05:26;;;;;;;5.40;1.27;;;;;;;;;;5054738;28;20480;-80
2021/04/15 14:07:52;;;;;;;5.63;1.33;;;;;;;;;;5054518;28;20036;-81
2021/04/15 14:10:17;;;;;;;2.47;0.90;;;;;;;;;;5054516;28;20017;-81
2021/04/15 14:12:50;;;;;;;2.00;1.00;;;;;;;;;;5054691;28;20021;-81
2021/04/15 14:15:33;;;;;;;3.83;1.08;;;;;;;;;;5053119;28;20024;-81
2021/04/15 14:17:59;;;;;;;4.25;1.10;;;;;;;;;;5069825;28;20020;-80
2021/04/15 14:20:30;;;;;;;1.82;0.96;;;;;;;;;;5054424;28;20472;-82
2021/04/15 14:22:55;;;;;;;2.05;0.90;;;;;;;;;;5052865;28;20024;-80
2021/04/15 14:25:29;;;;;;;1.33;0.88;;;;;;;;;;5053034;28;20357;-80
2021/04/15 14:27:54;;;;;;;4.68;1.08;;;;;;;;;;5054093;28;20021;-80
2021/04/15 14:30:20;;;;;;;3.65;0.75;;;;;;;;;;5052597;28;20016;-80
2021/04/15 14:32:45;;;;;;;4.03;1.00;;;;;;;;;;5054495;28;20088;-80
2021/04/15 14:35:12;;;;;;;2.60;0.80;;;;;;;;;;5053755;28;20032;-80
2021/04/15 14:37:38;;;;;;;2.47;0.80;;;;;;;;;;5053974;28;20013;-81
2021/04/15 14:40:18;;;;;;;3.45;1.08;;;;;;;;;;5054231;28;20017;-81
2021/04/15 14:42:43;;;;;;;2.33;0.90;;;;;;;;;;5054022;28;20503;-80
2021/04/15 14:45:17;;;;;;;3.75;0.80;;;;;;;;;;5053718;28;20166;-80
2021/04/15 14:47:44;;;;;;;1.52;0.80;;;;;;;;;;5050276;28;20025;-81
2021/04/15 14:50:23;;;;;;;1.58;1.23;;;;;;;;;;5052317;28;20082;-81
2021/04/15 14:52:49;;;;;;;4.18;1.20;;;;;;;;;;5049783;28;20350;-80
2021/04/15 14:55:40;;;;;;;4.10;1.40;;;;;;;;;;5051699;28;20468;-80
2021/04/15 14:58:08;;;;;;;4.95;1.30;;;;;;;;;;5054303;28;20051;-80
2021/04/15 15:00:48;;;;;;;4.47;1.77;;;;;;;;;;5052134;28;20067;-80
2021/04/15 15:03:17;;;;;;;5.57;1.88;;;;;;;;;;5051137;28;20032;-81
2021/04/15 15:05:42;;;;;;;4.30;1.75;;;;;;;;;;5040924;28;20021;-80
2021/04/15 15:08:09;;;;;;;3.40;1.55;;;;;;;;;;5052161;28;20396;-80
2021/04/15 15:10:34;;;;;;;2.63;1.23;;;;;;;;;;5049079;28;20427;-81
2021/04/15 15:13:00;;;;;;;4.07;1.60;;;;;;;;;;5048775;28;20036;-81